Mattoon, Illinois
Current Conditions -  °F | °C
As of 6:53 PM on Monday 22 Dec 2014 (Local Time) from KMTO Reporting Station
Light Rain Light Rain  
Wind Chill:   Ceiling: 700
Heat Index:   Visibility: 4mi
Dew Point:   Wind: 12mph
Humidity: 93%   Direction: 140°SE
Pressure: 29.6"   Gusts: NA
Location:  39.48°N, 88.37°W
Report Text: KMTO 230053Z AUTO 14010KT 4SM -RA BR OVC007 08/07 A2960 RMK AO2 CIG 004V010 SLP027 P0010 T00780067
Loading
Personal Weather Stations






























Interactive Weather Map New forecast layout! Learn more

10-Day Weather Forecast

Advertisements
Track Severe Weather on mobile